sensor_id;sensor_type;location;lat;lon;timestamp;P1;durP1;ratioP1;P2;durP2;ratioP2
52764;SDS011;38650;44.536;18.664;2023-02-11T00:01:23;109.78;;;58.50;;
52764;SDS011;38650;44.536;18.664;2023-02-11T00:03:53;87.05;;;47.45;;
52764;SDS011;38650;44.536;18.664;2023-02-11T00:06:19;85.65;;;45.72;;
52764;SDS011;38650;44.536;18.664;2023-02-11T00:08:45;72.45;;;41.67;;
52764;SDS011;38650;44.536;18.664;2023-02-11T00:11:12;82.43;;;43.72;;
52764;SDS011;38650;44.536;18.664;2023-02-11T00:13:39;95.25;;;54.50;;
52764;SDS011;38650;44.536;18.664;2023-02-11T00:16:06;78.45;;;42.50;;
52764;SDS011;38650;44.536;18.664;2023-02-11T00:18:33;79.07;;;44.22;;
52764;SDS011;38650;44.536;18.664;2023-02-11T00:21:04;82.15;;;46.60;;
52764;SDS011;38650;44.536;18.664;2023-02-11T00:23:33;75.80;;;42.85;;
52764;SDS011;38650;44.536;18.664;2023-02-11T00:25:59;80.68;;;44.80;;
52764;SDS011;38650;44.536;18.664;2023-02-11T00:28:25;94.80;;;50.63;;
52764;SDS011;38650;44.536;18.664;2023-02-11T00:30:54;79.30;;;45.75;;
52764;SDS011;38650;44.536;18.664;2023-02-11T00:33:20;68.18;;;41.10;;
52764;SDS011;38650;44.536;18.664;2023-02-11T00:35:46;73.18;;;41.63;;
52764;SDS011;38650;44.536;18.664;2023-02-11T00:38:12;74.70;;;41.97;;
52764;SDS011;38650;44.536;18.664;2023-02-11T00:40:37;71.63;;;39.28;;
52764;SDS011;38650;44.536;18.664;2023-02-11T00:43:03;78.50;;;42.55;;
52764;SDS011;38650;44.536;18.664;2023-02-11T00:45:29;78.38;;;47.60;;
52764;SDS011;38650;44.536;18.664;2023-02-11T00:47:55;63.42;;;38.38;;
52764;SDS011;38650;44.536;18.664;2023-02-11T00:50:21;71.82;;;39.40;;
52764;SDS011;38650;44.536;18.664;2023-02-11T00:52:47;70.80;;;43.90;;
52764;SDS011;38650;44.536;18.664;2023-02-11T00:55:13;87.22;;;47.45;;
52764;SDS011;38650;44.536;18.664;2023-02-11T00:57:39;72.65;;;39.83;;
52764;SDS011;38650;44.536;18.664;2023-02-11T01:00:05;60.95;;;36.88;;
52764;SDS011;38650;44.536;18.664;2023-02-11T01:02:32;75.53;;;41.17;;
52764;SDS011;38650;44.536;18.664;2023-02-11T01:04:58;86.88;;;48.67;;
52764;SDS011;38650;44.536;18.664;2023-02-11T01:07:25;71.68;;;42.65;;
52764;SDS011;38650;44.536;18.664;2023-02-11T01:09:51;72.05;;;41.10;;
52764;SDS011;38650;44.536;18.664;2023-02-11T01:12:18;74.65;;;42.38;;
52764;SDS011;38650;44.536;18.664;2023-02-11T01:14:43;65.90;;;37.10;;
52764;SDS011;38650;44.536;18.664;2023-02-11T01:17:09;63.15;;;37.22;;
52764;SDS011;38650;44.536;18.664;2023-02-11T01:19:35;58.72;;;32.95;;
52764;SDS011;38650;44.536;18.664;2023-02-11T01:22:02;63.15;;;35.78;;
52764;SDS011;38650;44.536;18.664;2023-02-11T01:24:27;63.92;;;36.35;;
52764;SDS011;38650;44.536;18.664;2023-02-11T01:26:53;59.13;;;33.20;;
52764;SDS011;38650;44.536;18.664;2023-02-11T01:29:19;58.63;;;33.65;;
52764;SDS011;38650;44.536;18.664;2023-02-11T01:31:45;71.93;;;38.33;;
52764;SDS011;38650;44.536;18.664;2023-02-11T01:34:11;67.50;;;37.78;;
52764;SDS011;38650;44.536;18.664;2023-02-11T01:36:36;76.50;;;42.85;;
52764;SDS011;38650;44.536;18.664;2023-02-11T01:39:02;81.25;;;44.42;;
52764;SDS011;38650;44.536;18.664;2023-02-11T01:41:28;68.40;;;39.28;;
52764;SDS011;38650;44.536;18.664;2023-02-11T01:43:54;62.60;;;35.78;;
52764;SDS011;38650;44.536;18.664;2023-02-11T01:46:30;61.03;;;36.35;;
52764;SDS011;38650;44.536;18.664;2023-02-11T01:54:11;54.30;;;32.72;;
52764;SDS011;38650;44.536;18.664;2023-02-11T01:56:59;49.15;;;29.27;;
52764;SDS011;38650;44.536;18.664;2023-02-11T02:08:33;55.97;;;33.00;;
52764;SDS011;38650;44.536;18.664;2023-02-11T02:11:02;61.15;;;33.20;;
52764;SDS011;38650;44.536;18.664;2023-02-11T02:13:31;59.10;;;34.35;;
52764;SDS011;38650;44.536;18.664;2023-02-11T02:16:01;54.80;;;32.97;;
52764;SDS011;38650;44.536;18.664;2023-02-11T02:27:30;51.87;;;30.83;;
52764;SDS011;38650;44.536;18.664;2023-02-11T02:30:06;43.72;;;27.45;;
52764;SDS011;38650;44.536;18.664;2023-02-11T02:36:13;37.53;;;23.63;;
52764;SDS011;38650;44.536;18.664;2023-02-11T02:38:52;42.13;;;23.77;;
52764;SDS011;38650;44.536;18.664;2023-02-11T02:41:32;49.13;;;29.13;;
52764;SDS011;38650;44.536;18.664;2023-02-11T02:43:59;58.13;;;31.93;;
52764;SDS011;38650;44.536;18.664;2023-02-11T02:46:26;45.63;;;27.10;;
52764;SDS011;38650;44.536;18.664;2023-02-11T02:48:54;43.60;;;27.20;;
52764;SDS011;38650;44.536;18.664;2023-02-11T03:00:16;46.97;;;26.60;;
52764;SDS011;38650;44.536;18.664;2023-02-11T03:05:59;42.67;;;25.00;;
52764;SDS011;38650;44.536;18.664;2023-02-11T03:11:32;44.00;;;27.20;;
52764;SDS011;38650;44.536;18.664;2023-02-11T03:14:01;39.87;;;23.33;;
52764;SDS011;38650;44.536;18.664;2023-02-11T03:16:28;33.97;;;21.93;;
52764;SDS011;38650;44.536;18.664;2023-02-11T03:19:04;39.83;;;24.10;;
52764;SDS011;38650;44.536;18.664;2023-02-11T03:21:39;34.40;;;21.97;;
52764;SDS011;38650;44.536;18.664;2023-02-11T03:24:09;39.50;;;23.80;;
52764;SDS011;38650;44.536;18.664;2023-02-11T03:26:53;38.30;;;23.50;;
52764;SDS011;38650;44.536;18.664;2023-02-11T03:29:44;45.60;;;26.90;;
52764;SDS011;38650;44.536;18.664;2023-02-11T03:32:25;34.80;;;20.97;;
52764;SDS011;38650;44.536;18.664;2023-02-11T03:35:14;33.70;;;21.80;;
52764;SDS011;38650;44.536;18.664;2023-02-11T03:37:52;36.50;;;22.13;;
52764;SDS011;38650;44.536;18.664;2023-02-11T03:40:21;39.03;;;22.93;;
52764;SDS011;38650;44.536;18.664;2023-02-11T03:43:02;53.53;;;30.65;;
52764;SDS011;38650;44.536;18.664;2023-02-11T03:45:37;44.85;;;26.90;;
52764;SDS011;38650;44.536;18.664;2023-02-11T03:51:11;66.17;;;39.37;;
52764;SDS011;38650;44.536;18.664;2023-02-11T03:53:38;56.80;;;35.43;;
52764;SDS011;38650;44.536;18.664;2023-02-11T03:56:08;46.93;;;28.40;;
52764;SDS011;38650;44.536;18.664;2023-02-11T03:58:37;52.93;;;32.90;;
52764;SDS011;38650;44.536;18.664;2023-02-11T04:01:03;49.83;;;31.50;;
52764;SDS011;38650;44.536;18.664;2023-02-11T04:03:32;40.73;;;26.20;;
52764;SDS011;38650;44.536;18.664;2023-02-11T04:05:58;41.17;;;23.43;;
52764;SDS011;38650;44.536;18.664;2023-02-11T04:08:24;36.00;;;23.10;;
52764;SDS011;38650;44.536;18.664;2023-02-11T04:10:49;46.03;;;27.47;;
52764;SDS011;38650;44.536;18.664;2023-02-11T04:13:15;51.73;;;28.33;;
52764;SDS011;38650;44.536;18.664;2023-02-11T04:15:41;51.05;;;29.02;;
52764;SDS011;38650;44.536;18.664;2023-02-11T04:18:06;40.67;;;25.23;;
52764;SDS011;38650;44.536;18.664;2023-02-11T04:20:32;40.20;;;24.10;;
52764;SDS011;38650;44.536;18.664;2023-02-11T04:22:58;38.53;;;23.90;;
52764;SDS011;38650;44.536;18.664;2023-02-11T04:25:23;40.53;;;24.60;;
52764;SDS011;38650;44.536;18.664;2023-02-11T04:27:50;55.57;;;32.53;;
52764;SDS011;38650;44.536;18.664;2023-02-11T04:30:16;41.77;;;27.47;;
52764;SDS011;38650;44.536;18.664;2023-02-11T04:32:41;42.57;;;25.73;;
52764;SDS011;38650;44.536;18.664;2023-02-11T04:35:07;40.50;;;24.63;;
52764;SDS011;38650;44.536;18.664;2023-02-11T04:37:33;45.13;;;25.53;;
52764;SDS011;38650;44.536;18.664;2023-02-11T04:39:59;64.50;;;38.40;;
52764;SDS011;38650;44.536;18.664;2023-02-11T04:42:25;41.10;;;24.77;;
52764;SDS011;38650;44.536;18.664;2023-02-11T04:44:51;38.43;;;24.47;;
52764;SDS011;38650;44.536;18.664;2023-02-11T04:47:17;40.87;;;24.53;;
52764;SDS011;38650;44.536;18.664;2023-02-11T04:49:43;40.33;;;23.63;;
52764;SDS011;38650;44.536;18.664;2023-02-11T04:52:08;41.07;;;24.17;;
52764;SDS011;38650;44.536;18.664;2023-02-11T04:54:34;38.07;;;24.60;;
52764;SDS011;38650;44.536;18.664;2023-02-11T04:57:00;37.23;;;23.00;;
52764;SDS011;38650;44.536;18.664;2023-02-11T04:59:26;31.60;;;20.80;;
52764;SDS011;38650;44.536;18.664;2023-02-11T05:01:51;39.53;;;24.27;;
52764;SDS011;38650;44.536;18.664;2023-02-11T05:04:17;37.73;;;23.63;;
52764;SDS011;38650;44.536;18.664;2023-02-11T05:06:43;40.73;;;24.00;;
52764;SDS011;38650;44.536;18.664;2023-02-11T05:09:09;48.27;;;29.43;;
52764;SDS011;38650;44.536;18.664;2023-02-11T05:11:37;43.37;;;24.57;;
52764;SDS011;38650;44.536;18.664;2023-02-11T05:14:03;46.70;;;24.47;;
52764;SDS011;38650;44.536;18.664;2023-02-11T05:16:30;73.07;;;40.13;;
52764;SDS011;38650;44.536;18.664;2023-02-11T05:18:57;55.20;;;30.83;;
52764;SDS011;38650;44.536;18.664;2023-02-11T05:21:22;50.53;;;28.83;;
52764;SDS011;38650;44.536;18.664;2023-02-11T05:23:48;61.03;;;33.27;;
52764;SDS011;38650;44.536;18.664;2023-02-11T05:26:14;55.20;;;30.37;;
52764;SDS011;38650;44.536;18.664;2023-02-11T05:28:40;52.53;;;29.33;;
52764;SDS011;38650;44.536;18.664;2023-02-11T05:31:06;56.30;;;32.10;;
52764;SDS011;38650;44.536;18.664;2023-02-11T05:33:32;58.03;;;31.23;;
52764;SDS011;38650;44.536;18.664;2023-02-11T05:35:58;56.57;;;31.17;;
52764;SDS011;38650;44.536;18.664;2023-02-11T05:38:25;53.73;;;28.93;;
52764;SDS011;38650;44.536;18.664;2023-02-11T05:40:51;51.57;;;28.07;;
52764;SDS011;38650;44.536;18.664;2023-02-11T05:43:17;58.03;;;30.83;;
52764;SDS011;38650;44.536;18.664;2023-02-11T05:45:43;61.60;;;31.30;;
52764;SDS011;38650;44.536;18.664;2023-02-11T05:48:09;57.50;;;30.40;;
52764;SDS011;38650;44.536;18.664;2023-02-11T05:50:35;66.00;;;35.17;;
52764;SDS011;38650;44.536;18.664;2023-02-11T05:53:00;52.33;;;29.13;;
52764;SDS011;38650;44.536;18.664;2023-02-11T05:55:26;55.10;;;32.13;;
52764;SDS011;38650;44.536;18.664;2023-02-11T05:57:52;54.73;;;30.27;;
52764;SDS011;38650;44.536;18.664;2023-02-11T06:00:17;43.27;;;26.83;;
52764;SDS011;38650;44.536;18.664;2023-02-11T06:02:43;44.20;;;25.97;;
52764;SDS011;38650;44.536;18.664;2023-02-11T06:05:09;43.37;;;27.97;;
52764;SDS011;38650;44.536;18.664;2023-02-11T06:07:34;42.63;;;25.80;;
52764;SDS011;38650;44.536;18.664;2023-02-11T06:10:00;41.07;;;23.83;;
52764;SDS011;38650;44.536;18.664;2023-02-11T06:12:26;43.03;;;25.83;;
52764;SDS011;38650;44.536;18.664;2023-02-11T06:14:51;52.93;;;29.77;;
52764;SDS011;38650;44.536;18.664;2023-02-11T06:17:17;50.80;;;30.70;;
52764;SDS011;38650;44.536;18.664;2023-02-11T06:19:43;53.20;;;29.60;;
52764;SDS011;38650;44.536;18.664;2023-02-11T06:22:09;53.73;;;31.80;;
52764;SDS011;38650;44.536;18.664;2023-02-11T06:24:35;63.53;;;35.90;;
52764;SDS011;38650;44.536;18.664;2023-02-11T06:27:02;50.70;;;30.10;;
52764;SDS011;38650;44.536;18.664;2023-02-11T06:29:28;52.80;;;31.70;;
52764;SDS011;38650;44.536;18.664;2023-02-11T06:31:54;67.33;;;36.20;;
52764;SDS011;38650;44.536;18.664;2023-02-11T06:34:20;64.63;;;38.10;;
52764;SDS011;38650;44.536;18.664;2023-02-11T06:36:46;61.33;;;34.20;;
52764;SDS011;38650;44.536;18.664;2023-02-11T06:39:12;56.43;;;32.70;;
52764;SDS011;38650;44.536;18.664;2023-02-11T06:41:38;53.03;;;34.37;;
52764;SDS011;38650;44.536;18.664;2023-02-11T06:44:04;60.67;;;35.07;;
52764;SDS011;38650;44.536;18.664;2023-02-11T06:46:30;62.60;;;37.03;;
52764;SDS011;38650;44.536;18.664;2023-02-11T06:48:56;64.17;;;36.77;;
52764;SDS011;38650;44.536;18.664;2023-02-11T06:51:22;83.90;;;46.93;;
52764;SDS011;38650;44.536;18.664;2023-02-11T06:53:48;122.30;;;64.83;;
52764;SDS011;38650;44.536;18.664;2023-02-11T06:56:15;85.83;;;47.73;;
52764;SDS011;38650;44.536;18.664;2023-02-11T06:58:45;89.10;;;47.97;;
52764;SDS011;38650;44.536;18.664;2023-02-11T07:01:13;76.57;;;44.30;;
52764;SDS011;38650;44.536;18.664;2023-02-11T07:03:40;68.13;;;39.93;;
52764;SDS011;38650;44.536;18.664;2023-02-11T07:06:07;62.63;;;37.37;;
52764;SDS011;38650;44.536;18.664;2023-02-11T07:08:37;54.90;;;33.27;;
52764;SDS011;38650;44.536;18.664;2023-02-11T07:11:08;54.40;;;31.17;;
52764;SDS011;38650;44.536;18.664;2023-02-11T07:13:36;46.03;;;29.07;;
52764;SDS011;38650;44.536;18.664;2023-02-11T07:16:04;46.97;;;29.40;;
52764;SDS011;38650;44.536;18.664;2023-02-11T07:18:31;104.77;;;50.23;;
52764;SDS011;38650;44.536;18.664;2023-02-11T07:20:56;60.10;;;32.97;;
52764;SDS011;38650;44.536;18.664;2023-02-11T07:23:22;62.03;;;34.07;;
52764;SDS011;38650;44.536;18.664;2023-02-11T07:25:48;62.97;;;37.87;;
52764;SDS011;38650;44.536;18.664;2023-02-11T07:28:13;56.30;;;31.93;;
52764;SDS011;38650;44.536;18.664;2023-02-11T07:30:39;52.57;;;31.00;;
52764;SDS011;38650;44.536;18.664;2023-02-11T07:33:05;51.47;;;30.73;;
52764;SDS011;38650;44.536;18.664;2023-02-11T07:35:30;54.78;;;31.45;;
52764;SDS011;38650;44.536;18.664;2023-02-11T07:37:56;44.80;;;29.75;;
52764;SDS011;38650;44.536;18.664;2023-02-11T07:40:22;48.55;;;29.35;;
52764;SDS011;38650;44.536;18.664;2023-02-11T07:42:47;42.78;;;27.92;;
52764;SDS011;38650;44.536;18.664;2023-02-11T07:45:13;44.83;;;29.42;;
52764;SDS011;38650;44.536;18.664;2023-02-11T07:47:39;71.88;;;45.10;;
52764;SDS011;38650;44.536;18.664;2023-02-11T07:50:06;123.90;;;77.55;;
52764;SDS011;38650;44.536;18.664;2023-02-11T07:52:33;136.10;;;87.18;;
52764;SDS011;38650;44.536;18.664;2023-02-11T07:54:59;183.73;;;111.32;;
52764;SDS011;38650;44.536;18.664;2023-02-11T07:57:24;261.77;;;153.20;;
52764;SDS011;38650;44.536;18.664;2023-02-11T07:59:51;200.27;;;121.22;;
52764;SDS011;38650;44.536;18.664;2023-02-11T08:02:17;235.90;;;135.95;;
52764;SDS011;38650;44.536;18.664;2023-02-11T08:04:44;183.48;;;114.68;;
52764;SDS011;38650;44.536;18.664;2023-02-11T08:07:13;153.38;;;99.47;;
52764;SDS011;38650;44.536;18.664;2023-02-11T08:09:40;135.88;;;87.65;;
52764;SDS011;38650;44.536;18.664;2023-02-11T08:12:06;124.90;;;84.03;;
52764;SDS011;38650;44.536;18.664;2023-02-11T08:14:32;107.15;;;74.70;;
52764;SDS011;38650;44.536;18.664;2023-02-11T08:16:57;101.05;;;69.35;;
52764;SDS011;38650;44.536;18.664;2023-02-11T08:19:23;74.90;;;53.88;;
52764;SDS011;38650;44.536;18.664;2023-02-11T08:21:49;73.38;;;50.05;;
52764;SDS011;38650;44.536;18.664;2023-02-11T08:24:15;66.65;;;47.20;;
52764;SDS011;38650;44.536;18.664;2023-02-11T08:26:41;64.95;;;47.47;;
52764;SDS011;38650;44.536;18.664;2023-02-11T08:29:10;61.10;;;45.22;;
52764;SDS011;38650;44.536;18.664;2023-02-11T08:31:38;57.10;;;43.00;;
52764;SDS011;38650;44.536;18.664;2023-02-11T08:34:06;59.25;;;43.25;;
52764;SDS011;38650;44.536;18.664;2023-02-11T08:36:33;51.38;;;37.47;;
52764;SDS011;38650;44.536;18.664;2023-02-11T08:39:01;48.50;;;36.53;;
52764;SDS011;38650;44.536;18.664;2023-02-11T08:41:32;52.55;;;37.33;;
52764;SDS011;38650;44.536;18.664;2023-02-11T08:43:58;50.65;;;38.03;;
52764;SDS011;38650;44.536;18.664;2023-02-11T08:46:24;45.97;;;34.30;;
52764;SDS011;38650;44.536;18.664;2023-02-11T08:48:50;39.45;;;30.42;;
52764;SDS011;38650;44.536;18.664;2023-02-11T08:51:20;40.70;;;30.55;;
52764;SDS011;38650;44.536;18.664;2023-02-11T08:53:47;36.97;;;27.75;;
52764;SDS011;38650;44.536;18.664;2023-02-11T08:56:14;36.97;;;27.83;;
52764;SDS011;38650;44.536;18.664;2023-02-11T08:58:41;41.33;;;31.00;;
52764;SDS011;38650;44.536;18.664;2023-02-11T09:01:08;42.13;;;31.08;;
52764;SDS011;38650;44.536;18.664;2023-02-11T09:03:38;46.38;;;35.83;;
52764;SDS011;38650;44.536;18.664;2023-02-11T09:06:05;55.80;;;42.35;;
52764;SDS011;38650;44.536;18.664;2023-02-11T09:08:33;71.85;;;50.13;;
52764;SDS011;38650;44.536;18.664;2023-02-11T09:11:00;72.63;;;52.20;;
52764;SDS011;38650;44.536;18.664;2023-02-11T09:13:26;112.50;;;66.05;;
52764;SDS011;38650;44.536;18.664;2023-02-11T09:15:52;81.82;;;53.03;;
52764;SDS011;38650;44.536;18.664;2023-02-11T09:18:17;63.78;;;46.45;;
52764;SDS011;38650;44.536;18.664;2023-02-11T09:20:43;58.25;;;38.10;;
52764;SDS011;38650;44.536;18.664;2023-02-11T09:23:09;54.70;;;39.92;;
52764;SDS011;38650;44.536;18.664;2023-02-11T09:25:37;47.63;;;32.90;;
52764;SDS011;38650;44.536;18.664;2023-02-11T09:28:04;42.70;;;33.60;;
52764;SDS011;38650;44.536;18.664;2023-02-11T09:30:30;46.28;;;34.70;;
52764;SDS011;38650;44.536;18.664;2023-02-11T09:32:56;60.42;;;45.42;;
52764;SDS011;38650;44.536;18.664;2023-02-11T09:35:21;53.22;;;37.60;;
52764;SDS011;38650;44.536;18.664;2023-02-11T09:37:47;37.35;;;27.33;;
52764;SDS011;38650;44.536;18.664;2023-02-11T09:40:13;37.78;;;27.80;;
52764;SDS011;38650;44.536;18.664;2023-02-11T09:42:56;42.15;;;29.40;;
52764;SDS011;38650;44.536;18.664;2023-02-11T09:45:33;33.35;;;26.40;;
52764;SDS011;38650;44.536;18.664;2023-02-11T09:48:00;44.55;;;32.75;;
52764;SDS011;38650;44.536;18.664;2023-02-11T09:50:35;50.78;;;36.80;;
52764;SDS011;38650;44.536;18.664;2023-02-11T09:55:44;47.00;;;35.67;;
52764;SDS011;38650;44.536;18.664;2023-02-11T09:58:15;46.15;;;34.33;;
52764;SDS011;38650;44.536;18.664;2023-02-11T10:03:55;40.63;;;29.70;;
52764;SDS011;38650;44.536;18.664;2023-02-11T10:12:02;46.67;;;36.47;;
52764;SDS011;38650;44.536;18.664;2023-02-11T10:22:50;41.03;;;33.65;;
52764;SDS011;38650;44.536;18.664;2023-02-11T10:25:25;43.45;;;36.45;;
52764;SDS011;38650;44.536;18.664;2023-02-11T10:28:13;41.92;;;35.25;;
52764;SDS011;38650;44.536;18.664;2023-02-11T10:31:27;45.50;;;37.67;;
52764;SDS011;38650;44.536;18.664;2023-02-11T10:35:55;41.53;;;33.35;;
52764;SDS011;38650;44.536;18.664;2023-02-11T10:38:21;40.72;;;33.42;;
52764;SDS011;38650;44.536;18.664;2023-02-11T10:40:46;33.80;;;30.10;;
52764;SDS011;38650;44.536;18.664;2023-02-11T10:43:13;33.67;;;29.23;;
52764;SDS011;38650;44.536;18.664;2023-02-11T10:56:44;31.45;;;26.58;;
52764;SDS011;38650;44.536;18.664;2023-02-11T10:59:27;27.38;;;24.02;;
52764;SDS011;38650;44.536;18.664;2023-02-11T11:06:53;22.30;;;18.98;;
52764;SDS011;38650;44.536;18.664;2023-02-11T11:09:26;23.15;;;19.75;;
52764;SDS011;38650;44.536;18.664;2023-02-11T11:11:56;30.00;;;25.35;;
52764;SDS011;38650;44.536;18.664;2023-02-11T11:14:22;29.85;;;26.00;;
52764;SDS011;38650;44.536;18.664;2023-02-11T11:16:53;35.97;;;29.50;;
52764;SDS011;38650;44.536;18.664;2023-02-11T11:19:23;31.45;;;27.75;;
52764;SDS011;38650;44.536;18.664;2023-02-11T11:21:53;29.95;;;25.15;;
52764;SDS011;38650;44.536;18.664;2023-02-11T11:24:21;28.77;;;23.70;;
52764;SDS011;38650;44.536;18.664;2023-02-11T11:26:48;30.65;;;27.35;;
52764;SDS011;38650;44.536;18.664;2023-02-11T11:30:04;29.42;;;26.42;;
52764;SDS011;38650;44.536;18.664;2023-02-11T11:32:19;27.20;;;24.40;;
52764;SDS011;38650;44.536;18.664;2023-02-11T11:35:19;28.35;;;25.02;;
52764;SDS011;38650;44.536;18.664;2023-02-11T11:37:51;26.85;;;23.92;;
52764;SDS011;38650;44.536;18.664;2023-02-11T11:40:23;24.63;;;22.05;;
52764;SDS011;38650;44.536;18.664;2023-02-11T11:43:12;24.75;;;21.88;;
52764;SDS011;38650;44.536;18.664;2023-02-11T11:45:55;24.25;;;20.13;;
52764;SDS011;38650;44.536;18.664;2023-02-11T11:48:24;20.02;;;17.92;;
52764;SDS011;38650;44.536;18.664;2023-02-11T11:51:03;19.45;;;17.30;;
52764;SDS011;38650;44.536;18.664;2023-02-11T11:56:19;25.73;;;22.17;;
52764;SDS011;38650;44.536;18.664;2023-02-11T11:58:50;22.20;;;17.98;;
52764;SDS011;38650;44.536;18.664;2023-02-11T12:01:24;21.13;;;18.35;;
52764;SDS011;38650;44.536;18.664;2023-02-11T12:17:04;16.30;;;14.45;;
52764;SDS011;38650;44.536;18.664;2023-02-11T12:19:50;16.80;;;15.02;;
52764;SDS011;38650;44.536;18.664;2023-02-11T12:33:32;16.95;;;15.18;;
52764;SDS011;38650;44.536;18.664;2023-02-11T12:44:57;16.55;;;14.80;;
52764;SDS011;38650;44.536;18.664;2023-02-11T12:55:41;13.75;;;12.45;;
52764;SDS011;38650;44.536;18.664;2023-02-11T12:58:14;14.63;;;13.13;;
52764;SDS011;38650;44.536;18.664;2023-02-11T13:00:46;14.50;;;13.05;;
52764;SDS011;38650;44.536;18.664;2023-02-11T13:03:49;15.05;;;13.55;;
52764;SDS011;38650;44.536;18.664;2023-02-11T13:06:14;13.40;;;12.00;;
52764;SDS011;38650;44.536;18.664;2023-02-11T13:08:49;13.20;;;11.90;;
52764;SDS011;38650;44.536;18.664;2023-02-11T13:11:39;12.85;;;11.55;;
52764;SDS011;38650;44.536;18.664;2023-02-11T13:14:11;15.00;;;12.93;;
52764;SDS011;38650;44.536;18.664;2023-02-11T13:16:44;13.13;;;11.82;;
52764;SDS011;38650;44.536;18.664;2023-02-11T13:24:15;20.27;;;18.08;;
52764;SDS011;38650;44.536;18.664;2023-02-11T13:27:02;17.10;;;15.37;;
52764;SDS011;38650;44.536;18.664;2023-02-11T13:29:32;17.20;;;15.50;;
52764;SDS011;38650;44.536;18.664;2023-02-11T13:32:11;16.67;;;14.90;;
52764;SDS011;38650;44.536;18.664;2023-02-11T13:37:27;19.85;;;17.75;;
52764;SDS011;38650;44.536;18.664;2023-02-11T13:42:50;21.88;;;19.50;;
52764;SDS011;38650;44.536;18.664;2023-02-11T13:47:58;19.40;;;17.50;;
52764;SDS011;38650;44.536;18.664;2023-02-11T13:50:26;16.45;;;14.40;;
52764;SDS011;38650;44.536;18.664;2023-02-11T13:52:57;16.55;;;14.82;;
52764;SDS011;38650;44.536;18.664;2023-02-11T13:55:25;15.13;;;13.63;;
52764;SDS011;38650;44.536;18.664;2023-02-11T14:06:14;15.70;;;14.10;;
52764;SDS011;38650;44.536;18.664;2023-02-11T14:22:03;26.98;;;23.15;;
52764;SDS011;38650;44.536;18.664;2023-02-11T14:24:59;28.88;;;23.38;;
52764;SDS011;38650;44.536;18.664;2023-02-11T14:27:34;34.80;;;28.15;;
52764;SDS011;38650;44.536;18.664;2023-02-11T14:36:41;73.80;;;56.58;;
52764;SDS011;38650;44.536;18.664;2023-02-11T14:41:51;58.25;;;44.35;;
52764;SDS011;38650;44.536;18.664;2023-02-11T14:44:21;46.50;;;39.95;;
52764;SDS011;38650;44.536;18.664;2023-02-11T14:46:49;37.80;;;33.10;;
52764;SDS011;38650;44.536;18.664;2023-02-11T14:51:55;59.42;;;47.88;;
52764;SDS011;38650;44.536;18.664;2023-02-11T14:54:26;48.38;;;42.45;;
52764;SDS011;38650;44.536;18.664;2023-02-11T14:59:30;42.95;;;37.08;;
52764;SDS011;38650;44.536;18.664;2023-02-11T15:01:56;124.75;;;99.85;;
52764;SDS011;38650;44.536;18.664;2023-02-11T15:06:49;159.15;;;128.60;;
52764;SDS011;38650;44.536;18.664;2023-02-11T15:09:16;179.35;;;137.80;;
52764;SDS011;38650;44.536;18.664;2023-02-11T15:11:48;123.53;;;95.35;;
52764;SDS011;38650;44.536;18.664;2023-02-11T15:14:18;131.57;;;102.88;;
52764;SDS011;38650;44.536;18.664;2023-02-11T15:16:48;184.13;;;131.00;;
52764;SDS011;38650;44.536;18.664;2023-02-11T15:21:48;132.80;;;104.80;;
52764;SDS011;38650;44.536;18.664;2023-02-11T15:24:36;141.52;;;104.97;;
52764;SDS011;38650;44.536;18.664;2023-02-11T15:29:41;120.13;;;92.07;;
52764;SDS011;38650;44.536;18.664;2023-02-11T15:34:37;102.80;;;78.25;;
52764;SDS011;38650;44.536;18.664;2023-02-11T15:37:04;120.18;;;88.88;;
52764;SDS011;38650;44.536;18.664;2023-02-11T15:39:32;140.52;;;94.00;;
52764;SDS011;38650;44.536;18.664;2023-02-11T15:47:40;283.25;;;184.55;;
52764;SDS011;38650;44.536;18.664;2023-02-11T15:50:19;180.55;;;127.50;;
52764;SDS011;38650;44.536;18.664;2023-02-11T15:52:47;130.40;;;88.82;;
52764;SDS011;38650;44.536;18.664;2023-02-11T15:55:14;144.82;;;98.65;;
52764;SDS011;38650;44.536;18.664;2023-02-11T15:57:43;175.15;;;113.80;;
52764;SDS011;38650;44.536;18.664;2023-02-11T16:00:14;193.70;;;124.07;;
52764;SDS011;38650;44.536;18.664;2023-02-11T16:02:44;223.38;;;139.68;;
52764;SDS011;38650;44.536;18.664;2023-02-11T16:05:23;252.82;;;164.75;;
52764;SDS011;38650;44.536;18.664;2023-02-11T16:07:52;158.05;;;109.60;;
52764;SDS011;38650;44.536;18.664;2023-02-11T16:10:19;102.93;;;73.55;;
52764;SDS011;38650;44.536;18.664;2023-02-11T16:12:54;87.80;;;62.55;;
52764;SDS011;38650;44.536;18.664;2023-02-11T16:17:54;107.93;;;72.05;;
52764;SDS011;38650;44.536;18.664;2023-02-11T16:20:20;86.32;;;62.60;;
52764;SDS011;38650;44.536;18.664;2023-02-11T16:22:46;77.93;;;58.83;;
52764;SDS011;38650;44.536;18.664;2023-02-11T16:25:21;80.63;;;61.15;;
52764;SDS011;38650;44.536;18.664;2023-02-11T16:27:48;95.97;;;70.50;;
52764;SDS011;38650;44.536;18.664;2023-02-11T16:30:32;102.75;;;74.78;;
52764;SDS011;38650;44.536;18.664;2023-02-11T16:33:01;101.38;;;72.43;;
52764;SDS011;38650;44.536;18.664;2023-02-11T16:35:28;112.22;;;79.22;;
52764;SDS011;38650;44.536;18.664;2023-02-11T16:37:54;106.25;;;76.40;;
52764;SDS011;38650;44.536;18.664;2023-02-11T16:40:20;98.28;;;73.43;;
52764;SDS011;38650;44.536;18.664;2023-02-11T16:42:47;183.38;;;124.15;;
52764;SDS011;38650;44.536;18.664;2023-02-11T16:45:13;177.13;;;127.18;;
52764;SDS011;38650;44.536;18.664;2023-02-11T16:47:40;137.95;;;106.57;;
52764;SDS011;38650;44.536;18.664;2023-02-11T16:50:07;104.90;;;76.97;;
52764;SDS011;38650;44.536;18.664;2023-02-11T16:52:35;100.45;;;75.00;;
52764;SDS011;38650;44.536;18.664;2023-02-11T16:55:02;96.63;;;70.38;;
52764;SDS011;38650;44.536;18.664;2023-02-11T16:57:29;85.97;;;62.72;;
52764;SDS011;38650;44.536;18.664;2023-02-11T16:59:55;77.82;;;56.10;;
52764;SDS011;38650;44.536;18.664;2023-02-11T17:02:43;88.03;;;57.70;;
52764;SDS011;38650;44.536;18.664;2023-02-11T17:05:16;74.53;;;54.05;;
52764;SDS011;38650;44.536;18.664;2023-02-11T17:07:44;78.72;;;52.60;;
52764;SDS011;38650;44.536;18.664;2023-02-11T17:10:14;78.43;;;51.50;;
52764;SDS011;38650;44.536;18.664;2023-02-11T17:12:43;94.07;;;63.80;;
52764;SDS011;38650;44.536;18.664;2023-02-11T17:15:10;102.82;;;71.18;;
52764;SDS011;38650;44.536;18.664;2023-02-11T17:17:36;92.43;;;64.70;;
52764;SDS011;38650;44.536;18.664;2023-02-11T17:20:02;98.28;;;65.63;;
52764;SDS011;38650;44.536;18.664;2023-02-11T17:22:28;121.15;;;76.65;;
52764;SDS011;38650;44.536;18.664;2023-02-11T17:24:53;96.60;;;63.75;;
52764;SDS011;38650;44.536;18.664;2023-02-11T17:27:22;115.93;;;77.00;;
52764;SDS011;38650;44.536;18.664;2023-02-11T17:29:48;138.40;;;89.22;;
52764;SDS011;38650;44.536;18.664;2023-02-11T17:32:14;184.32;;;120.45;;